sensor_id;sensor_type;location;lat;lon;timestamp;pressure;altitude;pressure_sealevel;temperature;humidity
17764;BME280;22245;52.832;13.816;2023-05-08T00:03:15;102591.66;;;7.43;74.81
17764;BME280;22245;52.832;13.816;2023-05-08T00:06:36;102590.06;;;7.38;75.16
17764;BME280;22245;52.832;13.816;2023-05-08T00:09:58;102589.41;;;7.33;74.97
17764;BME280;22245;52.832;13.816;2023-05-08T00:13:20;102588.63;;;7.31;74.84
17764;BME280;22245;52.832;13.816;2023-05-08T00:16:43;102597.50;;;7.30;74.83
17764;BME280;22245;52.832;13.816;2023-05-08T00:20:05;102587.81;;;7.29;74.91
17764;BME280;22245;52.832;13.816;2023-05-08T00:23:28;102589.72;;;7.26;74.70
17764;BME280;22245;52.832;13.816;2023-05-08T00:26:49;102582.91;;;7.20;74.75
17764;BME280;22245;52.832;13.816;2023-05-08T00:30:11;102593.81;;;7.12;74.92
17764;BME280;22245;52.832;13.816;2023-05-08T00:33:35;102586.97;;;7.06;75.06
17764;BME280;22245;52.832;13.816;2023-05-08T00:36:56;102588.78;;;7.06;74.68
17764;BME280;22245;52.832;13.816;2023-05-08T00:40:18;102596.78;;;7.04;74.81
17764;BME280;22245;52.832;13.816;2023-05-08T00:43:40;102594.19;;;7.03;75.04
17764;BME280;22245;52.832;13.816;2023-05-08T00:47:02;102591.72;;;6.98;75.26
17764;BME280;22245;52.832;13.816;2023-05-08T00:50:25;102597.28;;;6.92;74.91
17764;BME280;22245;52.832;13.816;2023-05-08T00:53:47;102592.16;;;6.87;74.96
17764;BME280;22245;52.832;13.816;2023-05-08T00:57:09;102591.47;;;6.82;75.53
17764;BME280;22245;52.832;13.816;2023-05-08T01:00:31;102601.25;;;6.80;75.37
17764;BME280;22245;52.832;13.816;2023-05-08T01:03:53;102603.16;;;6.76;75.47
17764;BME280;22245;52.832;13.816;2023-05-08T01:07:16;102611.31;;;6.72;75.88
17764;BME280;22245;52.832;13.816;2023-05-08T01:10:53;102608.81;;;6.67;75.69
17764;BME280;22245;52.832;13.816;2023-05-08T01:14:20;102616.94;;;6.62;75.75
17764;BME280;22245;52.832;13.816;2023-05-08T01:17:56;102618.97;;;6.56;76.01
17764;BME280;22245;52.832;13.816;2023-05-08T01:21:26;102626.03;;;6.55;75.83
17764;BME280;22245;52.832;13.816;2023-05-08T01:25:09;102616.56;;;6.49;75.92
17764;BME280;22245;52.832;13.816;2023-05-08T01:28:58;102624.66;;;6.45;75.83
17764;BME280;22245;52.832;13.816;2023-05-08T01:32:31;102620.41;;;6.41;75.90
17764;BME280;22245;52.832;13.816;2023-05-08T01:36:00;102625.81;;;6.37;75.78
17764;BME280;22245;52.832;13.816;2023-05-08T01:39:31;102627.69;;;6.34;76.07
17764;BME280;22245;52.832;13.816;2023-05-08T01:43:07;102627.94;;;6.28;76.33
17764;BME280;22245;52.832;13.816;2023-05-08T01:46:31;102629.78;;;6.26;76.30
17764;BME280;22245;52.832;13.816;2023-05-08T01:50:01;102635.22;;;6.21;76.65
17764;BME280;22245;52.832;13.816;2023-05-08T01:53:27;102635.28;;;6.19;76.55
17764;BME280;22245;52.832;13.816;2023-05-08T01:56:52;102641.63;;;6.15;76.41
17764;BME280;22245;52.832;13.816;2023-05-08T02:00:18;102635.53;;;6.13;76.42
17764;BME280;22245;52.832;13.816;2023-05-08T02:03:41;102640.00;;;6.11;76.33
17764;BME280;22245;52.832;13.816;2023-05-08T02:07:06;102638.38;;;6.07;76.44
17764;BME280;22245;52.832;13.816;2023-05-08T02:10:28;102642.00;;;6.04;76.41
17764;BME280;22245;52.832;13.816;2023-05-08T02:13:50;102640.31;;;6.02;76.30
17764;BME280;22245;52.832;13.816;2023-05-08T02:17:14;102644.88;;;5.97;76.73
17764;BME280;22245;52.832;13.816;2023-05-08T02:20:36;102637.00;;;5.95;76.96
17764;BME280;22245;52.832;13.816;2023-05-08T02:24:01;102643.25;;;5.92;77.11
17764;BME280;22245;52.832;13.816;2023-05-08T02:27:26;102647.81;;;5.89;77.28
17764;BME280;22245;52.832;13.816;2023-05-08T02:30:50;102647.03;;;5.85;77.00
17764;BME280;22245;52.832;13.816;2023-05-08T02:34:13;102647.13;;;5.82;76.98
17764;BME280;22245;52.832;13.816;2023-05-08T02:37:36;102644.59;;;5.79;77.18
17764;BME280;22245;52.832;13.816;2023-05-08T02:41:01;102646.44;;;5.77;77.04
17764;BME280;22245;52.832;13.816;2023-05-08T02:44:24;102647.28;;;5.77;77.51
17764;BME280;22245;52.832;13.816;2023-05-08T02:47:51;102643.59;;;5.83;77.60
17764;BME280;22245;52.832;13.816;2023-05-08T02:51:22;102640.03;;;5.84;77.44
17764;BME280;22245;52.832;13.816;2023-05-08T02:54:53;102637.31;;;5.86;77.55
17764;BME280;22245;52.832;13.816;2023-05-08T02:58:21;102634.66;;;5.86;77.74
17764;BME280;22245;52.832;13.816;2023-05-08T03:01:50;102636.34;;;5.88;77.74
17764;BME280;22245;52.832;13.816;2023-05-08T03:05:16;102634.41;;;5.93;77.85
17764;BME280;22245;52.832;13.816;2023-05-08T03:08:41;102632.56;;;5.96;77.80
17764;BME280;22245;52.832;13.816;2023-05-08T03:12:07;102638.66;;;5.98;77.99
17764;BME280;22245;52.832;13.816;2023-05-08T03:15:33;102642.13;;;6.00;78.26
17764;BME280;22245;52.832;13.816;2023-05-08T03:19:00;102643.88;;;6.01;78.14
17764;BME280;22245;52.832;13.816;2023-05-08T03:22:25;102645.59;;;6.02;78.34
17764;BME280;22245;52.832;13.816;2023-05-08T03:25:47;102638.53;;;6.02;78.46
17764;BME280;22245;52.832;13.816;2023-05-08T03:29:09;102642.84;;;6.05;78.55
17764;BME280;22245;52.832;13.816;2023-05-08T03:32:35;102644.56;;;6.06;78.20
17764;BME280;22245;52.832;13.816;2023-05-08T03:35:58;102640.13;;;6.08;78.30
17764;BME280;22245;52.832;13.816;2023-05-08T03:39:19;102643.56;;;6.10;78.26
17764;BME280;22245;52.832;13.816;2023-05-08T03:42:42;102641.72;;;6.12;78.13
17764;BME280;22245;52.832;13.816;2023-05-08T03:46:04;102646.09;;;6.13;78.16
17764;BME280;22245;52.832;13.816;2023-05-08T03:49:29;102639.81;;;6.16;78.29
17764;BME280;22245;52.832;13.816;2023-05-08T03:52:51;102644.06;;;6.20;77.66
17764;BME280;22245;52.832;13.816;2023-05-08T03:56:13;102642.19;;;6.23;77.51
17764;BME280;22245;52.832;13.816;2023-05-08T03:59:41;102640.50;;;6.21;77.17
17764;BME280;22245;52.832;13.816;2023-05-08T04:03:15;102648.53;;;6.19;77.02
17764;BME280;22245;52.832;13.816;2023-05-08T04:06:45;102653.00;;;6.17;76.77
17764;BME280;22245;52.832;13.816;2023-05-08T04:10:20;102646.00;;;6.16;76.79
17764;BME280;22245;52.832;13.816;2023-05-08T04:13:48;102656.56;;;6.16;76.95
17764;BME280;22245;52.832;13.816;2023-05-08T04:17:13;102665.31;;;6.18;77.11
17764;BME280;22245;52.832;13.816;2023-05-08T04:20:38;102654.63;;;6.21;77.24
17764;BME280;22245;52.832;13.816;2023-05-08T04:24:03;102656.22;;;6.26;77.09
17764;BME280;22245;52.832;13.816;2023-05-08T04:27:27;102665.84;;;6.28;77.25
17764;BME280;22245;52.832;13.816;2023-05-08T04:30:49;102667.47;;;6.32;77.29
17764;BME280;22245;52.832;13.816;2023-05-08T04:34:11;102670.84;;;6.36;77.19
17764;BME280;22245;52.832;13.816;2023-05-08T04:37:33;102676.91;;;6.40;77.28
17764;BME280;22245;52.832;13.816;2023-05-08T04:40:57;102676.75;;;6.44;77.53
17764;BME280;22245;52.832;13.816;2023-05-08T04:44:19;102676.53;;;6.50;77.51
17764;BME280;22245;52.832;13.816;2023-05-08T04:47:41;102678.13;;;6.55;77.25
17764;BME280;22245;52.832;13.816;2023-05-08T04:51:03;102692.06;;;6.60;77.56
17764;BME280;22245;52.832;13.816;2023-05-08T04:54:25;102689.25;;;6.64;77.17
17764;BME280;22245;52.832;13.816;2023-05-08T04:57:48;102693.44;;;6.70;76.70
17764;BME280;22245;52.832;13.816;2023-05-08T05:01:09;102700.09;;;6.80;76.03
17764;BME280;22245;52.832;13.816;2023-05-08T05:04:31;102705.31;;;6.84;75.68
17764;BME280;22245;52.832;13.816;2023-05-08T05:07:53;102702.34;;;6.91;75.70
17764;BME280;22245;52.832;13.816;2023-05-08T05:11:15;102707.28;;;7.01;75.26
17764;BME280;22245;52.832;13.816;2023-05-08T05:14:38;102707.06;;;7.07;74.66
17764;BME280;22245;52.832;13.816;2023-05-08T05:18:00;102711.22;;;7.14;74.78
17764;BME280;22245;52.832;13.816;2023-05-08T05:21:22;102712.84;;;7.17;73.90
17764;BME280;22245;52.832;13.816;2023-05-08T05:24:43;102722.34;;;7.22;74.02
17764;BME280;22245;52.832;13.816;2023-05-08T05:28:05;102716.69;;;7.32;74.00
17764;BME280;22245;52.832;13.816;2023-05-08T05:31:28;102715.75;;;7.33;73.80
17764;BME280;22245;52.832;13.816;2023-05-08T05:34:51;102719.91;;;7.40;73.65
17764;BME280;22245;52.832;13.816;2023-05-08T05:38:14;102718.91;;;7.43;73.15
17764;BME280;22245;52.832;13.816;2023-05-08T05:41:36;102725.66;;;7.51;73.33
17764;BME280;22245;52.832;13.816;2023-05-08T05:44:57;102721.78;;;7.60;72.79
17764;BME280;22245;52.832;13.816;2023-05-08T05:48:24;102726.72;;;7.68;72.92
17764;BME280;22245;52.832;13.816;2023-05-08T05:51:46;102728.19;;;7.75;72.80
17764;BME280;22245;52.832;13.816;2023-05-08T05:55:09;102720.00;;;7.81;73.09
17764;BME280;22245;52.832;13.816;2023-05-08T05:58:31;102719.75;;;7.88;72.90
17764;BME280;22245;52.832;13.816;2023-05-08T06:01:53;102723.13;;;7.91;72.49
17764;BME280;22245;52.832;13.816;2023-05-08T06:05:16;102723.69;;;8.00;72.43
17764;BME280;22245;52.832;13.816;2023-05-08T06:08:38;102722.53;;;8.05;72.40
17764;BME280;22245;52.832;13.816;2023-05-08T06:12:00;102724.88;;;8.13;71.71
17764;BME280;22245;52.832;13.816;2023-05-08T06:15:23;102729.78;;;8.22;72.03
17764;BME280;22245;52.832;13.816;2023-05-08T06:18:46;102729.38;;;8.32;71.97
17764;BME280;22245;52.832;13.816;2023-05-08T06:22:09;102725.53;;;8.39;71.83
17764;BME280;22245;52.832;13.816;2023-05-08T06:25:31;102721.69;;;8.46;71.42
17764;BME280;22245;52.832;13.816;2023-05-08T06:28:53;102724.09;;;8.52;71.14
17764;BME280;22245;52.832;13.816;2023-05-08T06:32:16;102721.78;;;8.64;70.18
17764;BME280;22245;52.832;13.816;2023-05-08T06:35:37;102721.47;;;8.72;69.80
17764;BME280;22245;52.832;13.816;2023-05-08T06:39:03;102721.03;;;8.81;69.77
17764;BME280;22245;52.832;13.816;2023-05-08T06:42:25;102719.81;;;8.88;68.77
17764;BME280;22245;52.832;13.816;2023-05-08T06:45:47;102729.88;;;9.01;68.88
17764;BME280;22245;52.832;13.816;2023-05-08T06:49:08;102728.59;;;9.09;68.02
17764;BME280;22245;52.832;13.816;2023-05-08T06:52:31;102723.47;;;9.24;67.19
17764;BME280;22245;52.832;13.816;2023-05-08T06:55:53;102721.31;;;9.32;66.86
17764;BME280;22245;52.832;13.816;2023-05-08T06:59:17;102721.63;;;9.44;67.00
17764;BME280;22245;52.832;13.816;2023-05-08T07:02:38;102730.03;;;9.53;65.92
17764;BME280;22245;52.832;13.816;2023-05-08T07:06:00;102722.53;;;9.62;65.96
17764;BME280;22245;52.832;13.816;2023-05-08T07:09:21;102729.94;;;9.74;66.00
17764;BME280;22245;52.832;13.816;2023-05-08T07:12:44;102717.00;;;9.84;64.74
17764;BME280;22245;52.832;13.816;2023-05-08T07:16:08;102709.97;;;10.01;62.84
17764;BME280;22245;52.832;13.816;2023-05-08T07:19:30;102724.13;;;10.19;64.38
17764;BME280;22245;52.832;13.816;2023-05-08T07:22:51;102713.38;;;10.38;62.28
17764;BME280;22245;52.832;13.816;2023-05-08T07:26:13;102712.41;;;10.56;61.30
17764;BME280;22245;52.832;13.816;2023-05-08T07:29:37;102714.16;;;10.74;60.75
17764;BME280;22245;52.832;13.816;2023-05-08T07:33:00;102713.84;;;10.96;60.24
17764;BME280;22245;52.832;13.816;2023-05-08T07:36:22;102716.28;;;11.17;57.77
17764;BME280;22245;52.832;13.816;2023-05-08T07:39:43;102716.34;;;11.31;55.26
17764;BME280;22245;52.832;13.816;2023-05-08T07:43:06;102717.22;;;11.48;55.53
17764;BME280;22245;52.832;13.816;2023-05-08T07:46:29;102717.44;;;11.59;51.62
17764;BME280;22245;52.832;13.816;2023-05-08T07:49:52;102717.19;;;11.64;49.51
17764;BME280;22245;52.832;13.816;2023-05-08T07:53:13;102722.16;;;11.70;49.36
17764;BME280;22245;52.832;13.816;2023-05-08T07:56:35;102716.56;;;11.75;49.86
17764;BME280;22245;52.832;13.816;2023-05-08T08:00:00;102699.31;;;11.80;48.77
17764;BME280;22245;52.832;13.816;2023-05-08T08:03:34;102713.53;;;11.81;48.38
17764;BME280;22245;52.832;13.816;2023-05-08T08:06:55;102720.59;;;11.82;48.92
17764;BME280;22245;52.832;13.816;2023-05-08T08:10:17;102728.22;;;11.88;49.23
17764;BME280;22245;52.832;13.816;2023-05-08T08:13:38;102719.00;;;11.94;49.26
17764;BME280;22245;52.832;13.816;2023-05-08T08:17:00;102726.56;;;12.01;49.10
17764;BME280;22245;52.832;13.816;2023-05-08T08:20:23;102712.94;;;12.06;49.83
17764;BME280;22245;52.832;13.816;2023-05-08T08:23:45;102719.44;;;12.16;50.35
17764;BME280;22245;52.832;13.816;2023-05-08T08:27:06;102708.31;;;12.24;49.83
17764;BME280;22245;52.832;13.816;2023-05-08T08:30:28;102717.66;;;12.32;49.28
17764;BME280;22245;52.832;13.816;2023-05-08T08:33:50;102715.38;;;12.40;48.59
17764;BME280;22245;52.832;13.816;2023-05-08T08:37:14;102704.28;;;12.46;48.57
17764;BME280;22245;52.832;13.816;2023-05-08T08:40:39;102718.41;;;12.48;48.70
17764;BME280;22245;52.832;13.816;2023-05-08T08:44:01;102703.75;;;12.55;48.90
17764;BME280;22245;52.832;13.816;2023-05-08T08:47:26;102708.91;;;12.58;47.63
17764;BME280;22245;52.832;13.816;2023-05-08T08:50:51;102707.56;;;12.66;48.46
17764;BME280;22245;52.832;13.816;2023-05-08T08:54:20;102703.34;;;12.76;48.53
17764;BME280;22245;52.832;13.816;2023-05-08T08:57:46;102705.41;;;12.85;48.95
17764;BME280;22245;52.832;13.816;2023-05-08T09:01:14;102698.75;;;12.93;48.19
17764;BME280;22245;52.832;13.816;2023-05-08T09:04:37;102693.84;;;12.99;48.55
17764;BME280;22245;52.832;13.816;2023-05-08T09:08:00;102691.09;;;13.01;45.78
17764;BME280;22245;52.832;13.816;2023-05-08T09:11:23;102695.94;;;13.09;45.33
17764;BME280;22245;52.832;13.816;2023-05-08T09:14:45;102695.41;;;13.16;44.81
17764;BME280;22245;52.832;13.816;2023-05-08T09:18:06;102675.31;;;13.24;42.38
17764;BME280;22245;52.832;13.816;2023-05-08T09:21:28;102702.28;;;13.21;42.62
17764;BME280;22245;52.832;13.816;2023-05-08T09:24:54;102691.84;;;13.30;43.94
17764;BME280;22245;52.832;13.816;2023-05-08T09:28:19;102697.66;;;13.37;43.52
17764;BME280;22245;52.832;13.816;2023-05-08T09:31:43;102681.13;;;13.45;41.69
17764;BME280;22245;52.832;13.816;2023-05-08T09:35:07;102676.00;;;13.55;40.23
17764;BME280;22245;52.832;13.816;2023-05-08T09:38:34;102678.59;;;13.56;41.39
17764;BME280;22245;52.832;13.816;2023-05-08T09:41:57;102685.44;;;13.60;42.17
17764;BME280;22245;52.832;13.816;2023-05-08T09:45:28;102677.28;;;13.62;42.02
17764;BME280;22245;52.832;13.816;2023-05-08T09:48:51;102675.81;;;13.71;42.85
17764;BME280;22245;52.832;13.816;2023-05-08T09:52:14;102651.09;;;13.80;41.13
17764;BME280;22245;52.832;13.816;2023-05-08T09:55:45;102651.84;;;13.82;39.75
17764;BME280;22245;52.832;13.816;2023-05-08T09:59:21;102659.03;;;13.82;40.75
17764;BME280;22245;52.832;13.816;2023-05-08T10:02:55;102655.72;;;13.91;40.34
17764;BME280;22245;52.832;13.816;2023-05-08T10:06:18;102652.38;;;14.00;41.76
17764;BME280;22245;52.832;13.816;2023-05-08T10:09:39;102649.94;;;14.10;41.76
17764;BME280;22245;52.832;13.816;2023-05-08T10:13:10;102648.44;;;14.19;41.06
17764;BME280;22245;52.832;13.816;2023-05-08T10:16:40;102644.13;;;14.29;39.83
17764;BME280;22245;52.832;13.816;2023-05-08T10:20:06;102644.66;;;14.35;38.88
17764;BME280;22245;52.832;13.816;2023-05-08T10:23:28;102639.72;;;14.41;39.46
17764;BME280;22245;52.832;13.816;2023-05-08T10:26:55;102650.13;;;14.46;38.99
17764;BME280;22245;52.832;13.816;2023-05-08T10:30:28;102657.81;;;14.51;38.40
17764;BME280;22245;52.832;13.816;2023-05-08T10:33:54;102643.13;;;14.56;36.69
17764;BME280;22245;52.832;13.816;2023-05-08T10:37:18;102652.91;;;14.57;37.81
17764;BME280;22245;52.832;13.816;2023-05-08T10:40:40;102647.31;;;14.60;37.15
17764;BME280;22245;52.832;13.816;2023-05-08T10:44:03;102647.81;;;14.66;38.22
17764;BME280;22245;52.832;13.816;2023-05-08T10:47:31;102640.22;;;14.72;39.16
17764;BME280;22245;52.832;13.816;2023-05-08T10:51:00;102640.19;;;14.85;40.15
17764;BME280;22245;52.832;13.816;2023-05-08T10:54:33;102632.44;;;14.94;39.59
17764;BME280;22245;52.832;13.816;2023-05-08T10:58:05;102611.47;;;14.99;37.80
17764;BME280;22245;52.832;13.816;2023-05-08T11:01:26;102622.72;;;15.04;37.33
17764;BME280;22245;52.832;13.816;2023-05-08T11:04:48;102615.31;;;15.08;38.26
17764;BME280;22245;52.832;13.816;2023-05-08T11:08:13;102602.28;;;15.14;39.46
17764;BME280;22245;52.832;13.816;2023-05-08T11:11:37;102615.03;;;15.24;37.79
17764;BME280;22245;52.832;13.816;2023-05-08T11:15:01;102606.38;;;15.31;38.78
17764;BME280;22245;52.832;13.816;2023-05-08T11:18:25;102589.91;;;15.36;37.19
17764;BME280;22245;52.832;13.816;2023-05-08T11:22:15;102598.59;;;15.40;37.78
17764;BME280;22245;52.832;13.816;2023-05-08T11:25:43;102612.16;;;15.49;42.29
17764;BME280;22245;52.832;13.816;2023-05-08T11:29:15;102586.09;;;15.63;40.52
17764;BME280;22245;52.832;13.816;2023-05-08T11:32:56;102594.88;;;15.76;39.24
17764;BME280;22245;52.832;13.816;2023-05-08T11:36:19;102590.44;;;15.88;38.10
17764;BME280;22245;52.832;13.816;2023-05-08T11:39:42;102596.19;;;15.95;38.27
17764;BME280;22245;52.832;13.816;2023-05-08T11:43:18;102588.13;;;16.06;38.74
17764;BME280;22245;52.832;13.816;2023-05-08T11:46:43;102583.84;;;16.15;37.08
17764;BME280;22245;52.832;13.816;2023-05-08T11:50:09;102586.41;;;16.17;37.23
17764;BME280;22245;52.832;13.816;2023-05-08T11:53:32;102576.84;;;16.24;36.55
17764;BME280;22245;52.832;13.816;2023-05-08T11:56:53;102582.97;;;16.26;36.84
17764;BME280;22245;52.832;13.816;2023-05-08T12:00:15;102569.03;;;16.32;36.40
17764;BME280;22245;52.832;13.816;2023-05-08T12:03:39;102568.66;;;16.37;35.32
17764;BME280;22245;52.832;13.816;2023-05-08T12:07:04;102574.91;;;16.38;35.02
17764;BME280;22245;52.832;13.816;2023-05-08T12:10:26;102567.56;;;16.40;36.71
17764;BME280;22245;52.832;13.816;2023-05-08T12:13:49;102554.84;;;16.42;35.76
17764;BME280;22245;52.832;13.816;2023-05-08T12:17:10;102571.22;;;16.39;35.30
17764;BME280;22245;52.832;13.816;2023-05-08T12:20:38;102567.31;;;16.43;35.45
17764;BME280;22245;52.832;13.816;2023-05-08T12:24:00;102558.25;;;16.44;36.02
17764;BME280;22245;52.832;13.816;2023-05-08T12:27:25;102569.50;;;16.49;35.71
17764;BME280;22245;52.832;13.816;2023-05-08T12:30:47;102561.91;;;16.54;34.76
17764;BME280;22245;52.832;13.816;2023-05-08T12:34:09;102560.91;;;16.55;34.85
17764;BME280;22245;52.832;13.816;2023-05-08T12:37:32;102565.06;;;16.59;34.58
17764;BME280;22245;52.832;13.816;2023-05-08T12:40:53;102552.09;;;16.64;35.06
17764;BME280;22245;52.832;13.816;2023-05-08T12:44:17;102559.53;;;16.72;35.19
17764;BME280;22245;52.832;13.816;2023-05-08T12:47:39;102559.63;;;16.82;34.90
17764;BME280;22245;52.832;13.816;2023-05-08T12:51:02;102559.72;;;16.92;33.78
17764;BME280;22245;52.832;13.816;2023-05-08T12:54:32;102543.91;;;16.99;33.60
17764;BME280;22245;52.832;13.816;2023-05-08T12:58:05;102537.28;;;17.03;34.48
17764;BME280;22245;52.832;13.816;2023-05-08T13:01:33;102539.75;;;17.06;33.78
17764;BME280;22245;52.832;13.816;2023-05-08T13:04:55;102532.00;;;17.13;33.93
17764;BME280;22245;52.832;13.816;2023-05-08T13:08:17;102528.91;;;17.17;34.01
17764;BME280;22245;52.832;13.816;2023-05-08T13:11:40;102534.75;;;17.23;33.33
17764;BME280;22245;52.832;13.816;2023-05-08T13:15:01;102531.81;;;17.26;31.82
17764;BME280;22245;52.832;13.816;2023-05-08T13:18:25;102536.09;;;17.28;33.13
17764;BME280;22245;52.832;13.816;2023-05-08T13:21:47;102533.25;;;17.30;31.63
17764;BME280;22245;52.832;13.816;2023-05-08T13:25:08;102517.53;;;17.35;32.00
17764;BME280;22245;52.832;13.816;2023-05-08T13:28:31;102515.56;;;17.37;32.72
17764;BME280;22245;52.832;13.816;2023-05-08T13:31:53;102496.31;;;17.42;31.63
17764;BME280;22245;52.832;13.816;2023-05-08T13:35:15;102512.09;;;17.46;31.19
17764;BME280;22245;52.832;13.816;2023-05-08T13:38:37;102505.00;;;17.45;31.27
17764;BME280;22245;52.832;13.816;2023-05-08T13:41:58;102498.91;;;17.43;32.11
17764;BME280;22245;52.832;13.816;2023-05-08T13:45:21;102504.59;;;17.50;31.81
17764;BME280;22245;52.832;13.816;2023-05-08T13:48:43;102498.22;;;17.51;30.09
17764;BME280;22245;52.832;13.816;2023-05-08T13:52:04;102494.84;;;17.59;30.96
17764;BME280;22245;52.832;13.816;2023-05-08T13:55:26;102481.81;;;17.64;30.93
17764;BME280;22245;52.832;13.816;2023-05-08T13:58:48;102492.59;;;17.64;30.56
17764;BME280;22245;52.832;13.816;2023-05-08T14:02:10;102485.69;;;17.71;30.89
17764;BME280;22245;52.832;13.816;2023-05-08T14:05:33;102475.81;;;17.82;31.42
17764;BME280;22245;52.832;13.816;2023-05-08T14:08:54;102475.97;;;17.90;30.71
17764;BME280;22245;52.832;13.816;2023-05-08T14:12:16;102470.75;;;17.98;32.03
17764;BME280;22245;52.832;13.816;2023-05-08T14:15:38;102476.59;;;18.03;32.80
17764;BME280;22245;52.832;13.816;2023-05-08T14:19:02;102471.78;;;18.07;32.36
17764;BME280;22245;52.832;13.816;2023-05-08T14:22:23;102468.38;;;18.15;33.04
17764;BME280;22245;52.832;13.816;2023-05-08T14:25:45;102467.53;;;18.14;31.25
17764;BME280;22245;52.832;13.816;2023-05-08T14:29:06;102465.41;;;18.18;31.95
17764;BME280;22245;52.832;13.816;2023-05-08T14:32:28;102465.88;;;18.23;31.72
17764;BME280;22245;52.832;13.816;2023-05-08T14:35:51;102464.44;;;18.29;31.75
17764;BME280;22245;52.832;13.816;2023-05-08T14:39:12;102463.47;;;18.40;32.02
17764;BME280;22245;52.832;13.816;2023-05-08T14:42:34;102452.53;;;18.51;31.74
17764;BME280;22245;52.832;13.816;2023-05-08T14:45:55;102442.56;;;18.71;32.30
17764;BME280;22245;52.832;13.816;2023-05-08T14:49:16;102443.28;;;18.83;31.20
17764;BME280;22245;52.832;13.816;2023-05-08T14:52:54;102439.09;;;19.28;31.00
17764;BME280;22245;52.832;13.816;2023-05-08T14:56:15;102429.13;;;19.66;31.29
17764;BME280;22245;52.832;13.816;2023-05-08T14:59:38;102443.88;;;20.00;30.78
17764;BME280;22245;52.832;13.816;2023-05-08T15:03:11;102436.44;;;20.30;30.40
17764;BME280;22245;52.832;13.816;2023-05-08T15:06:33;102431.25;;;20.55;29.71
17764;BME280;22245;52.832;13.816;2023-05-08T15:09:56;102431.94;;;20.57;28.56
17764;BME280;22245;52.832;13.816;2023-05-08T15:13:18;102428.56;;;21.00;28.51
17764;BME280;22245;52.832;13.816;2023-05-08T15:16:40;102417.75;;;21.08;28.24
17764;BME280;22245;52.832;13.816;2023-05-08T15:20:02;102425.50;;;21.29;28.74
17764;BME280;22245;52.832;13.816;2023-05-08T15:23:24;102425.97;;;21.51;28.45
17764;BME280;22245;52.832;13.816;2023-05-08T15:26:47;102440.72;;;21.91;27.99
17764;BME280;22245;52.832;13.816;2023-05-08T15:30:10;102437.03;;;22.17;26.88
17764;BME280;22245;52.832;13.816;2023-05-08T15:33:32;102441.47;;;22.35;26.38
17764;BME280;22245;52.832;13.816;2023-05-08T15:36:54;102428.78;;;22.52;26.73
17764;BME280;22245;52.832;13.816;2023-05-08T15:40:16;102413.47;;;22.67;25.76
17764;BME280;22245;52.832;13.816;2023-05-08T15:43:39;102422.97;;;22.72;26.00
17764;BME280;22245;52.832;13.816;2023-05-08T15:47:01;102420.28;;;22.80;25.71
17764;BME280;22245;52.832;13.816;2023-05-08T15:50:22;102429.25;;;22.80;25.93
17764;BME280;22245;52.832;13.816;2023-05-08T15:53:44;102427.72;;;22.94;26.13
17764;BME280;22245;52.832;13.816;2023-05-08T15:57:05;102429.41;;;23.12;25.95
17764;BME280;22245;52.832;13.816;2023-05-08T16:00:28;102412.03;;;23.21;25.41
17764;BME280;22245;52.832;13.816;2023-05-08T16:04:04;102415.63;;;23.30;25.15
17764;BME280;22245;52.832;13.816;2023-05-08T16:07:25;102414.03;;;23.36;25.59
17764;BME280;22245;52.832;13.816;2023-05-08T16:10:47;102416.88;;;23.51;25.21
17764;BME280;22245;52.832;13.816;2023-05-08T16:14:08;102403.59;;;23.56;24.79
17764;BME280;22245;52.832;13.816;2023-05-08T16:17:32;102400.97;;;23.71;25.18
17764;BME280;22245;52.832;13.816;2023-05-08T16:20:54;102410.41;;;23.83;24.46
17764;BME280;22245;52.832;13.816;2023-05-08T16:24:15;102401.56;;;23.90;24.51
17764;BME280;22245;52.832;13.816;2023-05-08T16:27:37;102398.44;;;24.01;24.75
17764;BME280;22245;52.832;13.816;2023-05-08T16:30:58;102407.06;;;24.05;24.89
17764;BME280;22245;52.832;13.816;2023-05-08T16:34:22;102402.84;;;24.02;24.34
17764;BME280;22245;52.832;13.816;2023-05-08T16:37:44;102403.56;;;23.96;24.76
17764;BME280;22245;52.832;13.816;2023-05-08T16:41:06;102403.06;;;23.92;24.44
17764;BME280;22245;52.832;13.816;2023-05-08T16:44:29;102399.41;;;23.77;24.21
17764;BME280;22245;52.832;13.816;2023-05-08T16:47:50;102391.34;;;23.60;24.80
17764;BME280;22245;52.832;13.816;2023-05-08T16:51:13;102403.00;;;23.37;24.95
17764;BME280;22245;52.832;13.816;2023-05-08T16:54:34;102395.41;;;23.08;25.41
17764;BME280;22245;52.832;13.816;2023-05-08T16:57:56;102392.09;;;22.73;26.07
17764;BME280;22245;52.832;13.816;2023-05-08T17:01:18;102399.56;;;22.37;26.12
17764;BME280;22245;52.832;13.816;2023-05-08T17:04:39;102397.66;;;22.05;26.77
17764;BME280;22245;52.832;13.816;2023-05-08T17:08:02;102402.84;;;21.73;27.14
17764;BME280;22245;52.832;13.816;2023-05-08T17:11:24;102403.22;;;21.44;27.40
17764;BME280;22245;52.832;13.816;2023-05-08T17:14:45;102397.31;;;21.14;27.23
17764;BME280;22245;52.832;13.816;2023-05-08T17:18:07;102399.34;;;20.85;27.52
17764;BME280;22245;52.832;13.816;2023-05-08T17:21:29;102395.44;;;20.61;27.91
17764;BME280;22245;52.832;13.816;2023-05-08T17:24:53;102400.00;;;20.43;28.22
17764;BME280;22245;52.832;13.816;2023-05-08T17:28:15;102400.50;;;20.20;28.64
17764;BME280;22245;52.832;13.816;2023-05-08T17:31:36;102399.88;;;20.08;28.79
17764;BME280;22245;52.832;13.816;2023-05-08T17:34:58;102396.91;;;20.01;28.49
17764;BME280;22245;52.832;13.816;2023-05-08T17:38:19;102394.31;;;20.09;28.91